Warning: Javascript must be enabled to use all the features on this page!


Page Loading - Please Wait...

* We've detected you're using a mobile device. Find our Next Generation Station Page here.
Click to hideNews Bulletins

Peak Streamflow for the Nation

USGS 01509000 TIOUGHNIOGA RIVER AT CORTLAND NY

Cortland County, New York
Hydrologic Unit Code 02050102
Latitude  42°36'09.6", Longitude  76°09'33.8" NAD83
Drainage area 292  square miles
Contributing drainage area 292  square miles
Gage datum 1,084.46 feet above NAVD88
Output formats
Table
Graph
Tab-separated file
peakfq (watstore) format
Reselect output format
Water
Year
Date Gage
Height
(feet)
Stream-
flow
(cfs)
1939 1939-02-21 6.453 4,290
1940 1940-04-09 10.333,6 9,660
1941 1941-04-06 9.493 7,880
1942 1942-03-17 8.323 5,950
1943 1942-12-31 10.563 9,920
1944 1944-03-17 8.223 5,960
1945 1945-03-17 9.283 7,100
1946 1946-03-08 7.623 4,760
1947 1947-04-07 9.163 6,900
1948 1948-03-20 9.733 7,910
1949 1949-01-06 6.083 3,070
1950 1950-04-05 10.823 10,000
1951 1951-03-31 8.973 6,600
1952 1952-03-12 6.333 3,320
1953 1953-02-22 6.403 3,390
1954 1954-02-18 6.433 3,420
1955 1955-03-12 9.773 7,670
1956 1956-04-05 10.543 10,000
1957 1957-01-23 8.033 5,240
1958 1958-04-07 8.663 6,170
1959 1959-04-03 9.193 7,050
1960 1960-03-31 10.523 9,980
1961 1961-02-26 10.003 8,770
1962 1962-04-01 6.663 3,780
1963 1963-03-27 7.343 5,640
1964 1964-03-05 12.496 13,000
1965 1965-02-09 5.72 2,000
1966 1966-03-06 6.65 2,700
1967 1967-04-02 6.80 2,850
1968 1968-03-24 8.62 4,900
1969 1969-04-06 8.42 4,660
1970 1970-04-10 8.95 5,340
1971 1971-04-14 9.33 5,820
1972 1972-06-23 10.47 7,7309
1973 1972-12-07 8.69 5,030
1974 1974-04-05 11.11 9,100
1975 1975-02-25 9.94 6,750
1976 1976-04-16 9.30 5,660
1977 1977-03-14 12.12 11,800
1978 1977-10-18 9.66 6,250
1979 1979-03-06 12.42 12,800
1980 1980-03-22 10.45 7,730
1981 1981-02-21 9.45 5,920
1982 1981-10-28 12.50 11,200
1983 1983-04-25 8.22 4,170
1984 1984-02-15 11.05 8,530
1985 1985-03-13 7.71 3,590
1986 1986-03-15 11.01 8,900
1987 1986-11-27 6.93 2,810
1988 1988-03-26 9.28 5,640
1989 1989-03-31 7.54 3,410
1990 1990-02-17 8.30 4,270
1991 1991-03-04 7.71 3,590
1992 1992-03-28 7.56 3,430
1993 1993-04-11 12.25 10,400
1994 1994-04-17 10.00 6,490
1995 1994-11-02 6.95 2,730
1996 1996-01-20 13.02 11,800
1997 1996-12-02 10.45 7,190
1998 1998-01-08 10.32 6,990
1999 1999-01-24 9.78 6,160
2000 2000-02-28 10.96 8,030
2001 2001-04-09 10.58 7,400
2002 2002-02-02 7.58 3,380
2003 2003-03-21 9.33 5,510
2004 2004-03-06 9.19 5,310
2005 2005-04-03 14.07 14,200
2006 2006-06-28 10.95 7,620
2007 2007-03-15 9.85 5,930
2008 2008-02-07 8.54 4,210
2009 2009-03-10 8.95 4,710
2010 2010-01-26 9.01 4,780
2011 2010-10-01 11.31 8,230
2012 2012-01-28 6.72 2,450
2013 2013-07-02 9.83 5,900
2014 2014-03-30 8.53 4,200
2015 2015-04-10 9.38 5,270
2016 2016-02-26 7.78 3,430
2017 2017-02-26 8.22 3,870
2018 2018-03-31 8.64 4,320
2019 2019-02-08 7.65 3,300
?
  Peak Gage-Height Qualification Codes.
?
  Peak Streamflow Qualification Codes.